sensor_id;sensor_type;location;lat;lon;timestamp;P1;durP1;ratioP1;P2;durP2;ratioP2
77571;SDS011;67214;47.454;18.966;2023-03-01T00:01:13;15.85;;;8.83;;
77571;SDS011;67214;47.454;18.966;2023-03-01T00:03:42;13.75;;;8.93;;
77571;SDS011;67214;47.454;18.966;2023-03-01T00:06:09;13.95;;;7.92;;
77571;SDS011;67214;47.454;18.966;2023-03-01T00:08:37;14.20;;;8.68;;
77571;SDS011;67214;47.454;18.966;2023-03-01T00:11:07;13.60;;;8.75;;
77571;SDS011;67214;47.454;18.966;2023-03-01T00:13:36;15.15;;;9.33;;
77571;SDS011;67214;47.454;18.966;2023-03-01T00:16:04;14.18;;;8.73;;
77571;SDS011;67214;47.454;18.966;2023-03-01T00:18:33;11.95;;;8.60;;
77571;SDS011;67214;47.454;18.966;2023-03-01T00:21:01;14.73;;;9.38;;
77571;SDS011;67214;47.454;18.966;2023-03-01T00:23:28;14.43;;;9.38;;
77571;SDS011;67214;47.454;18.966;2023-03-01T00:25:56;13.30;;;9.13;;
77571;SDS011;67214;47.454;18.966;2023-03-01T00:28:24;14.35;;;9.23;;
77571;SDS011;67214;47.454;18.966;2023-03-01T00:30:51;15.50;;;9.65;;
77571;SDS011;67214;47.454;18.966;2023-03-01T00:33:19;18.48;;;10.93;;
77571;SDS011;67214;47.454;18.966;2023-03-01T00:35:46;16.85;;;11.88;;
77571;SDS011;67214;47.454;18.966;2023-03-01T00:38:13;20.85;;;12.40;;
77571;SDS011;67214;47.454;18.966;2023-03-01T00:40:41;20.52;;;12.60;;
77571;SDS011;67214;47.454;18.966;2023-03-01T00:43:09;20.10;;;13.10;;
77571;SDS011;67214;47.454;18.966;2023-03-01T00:45:36;22.35;;;13.10;;
77571;SDS011;67214;47.454;18.966;2023-03-01T00:48:04;20.75;;;12.75;;
77571;SDS011;67214;47.454;18.966;2023-03-01T00:50:32;20.37;;;13.25;;
77571;SDS011;67214;47.454;18.966;2023-03-01T00:52:59;23.65;;;13.60;;
77571;SDS011;67214;47.454;18.966;2023-03-01T00:55:27;20.60;;;13.28;;
77571;SDS011;67214;47.454;18.966;2023-03-01T00:57:54;21.05;;;13.30;;
77571;SDS011;67214;47.454;18.966;2023-03-01T01:00:21;19.67;;;12.33;;
77571;SDS011;67214;47.454;18.966;2023-03-01T01:02:49;19.77;;;12.78;;
77571;SDS011;67214;47.454;18.966;2023-03-01T01:05:16;21.33;;;12.65;;
77571;SDS011;67214;47.454;18.966;2023-03-01T01:07:46;16.82;;;11.22;;
77571;SDS011;67214;47.454;18.966;2023-03-01T01:10:14;16.23;;;10.28;;
77571;SDS011;67214;47.454;18.966;2023-03-01T01:12:48;17.25;;;12.15;;
77571;SDS011;67214;47.454;18.966;2023-03-01T01:15:12;19.25;;;11.33;;
77571;SDS011;67214;47.454;18.966;2023-03-01T01:17:41;18.90;;;12.00;;
77571;SDS011;67214;47.454;18.966;2023-03-01T01:20:09;18.52;;;10.85;;
77571;SDS011;67214;47.454;18.966;2023-03-01T01:22:37;17.85;;;11.88;;
77571;SDS011;67214;47.454;18.966;2023-03-01T01:25:05;16.27;;;10.90;;
77571;SDS011;67214;47.454;18.966;2023-03-01T01:27:33;17.48;;;11.57;;
77571;SDS011;67214;47.454;18.966;2023-03-01T01:30:00;17.77;;;10.70;;
77571;SDS011;67214;47.454;18.966;2023-03-01T01:32:27;16.37;;;11.22;;
77571;SDS011;67214;47.454;18.966;2023-03-01T01:34:55;18.73;;;12.20;;
77571;SDS011;67214;47.454;18.966;2023-03-01T01:37:23;21.70;;;11.68;;
77571;SDS011;67214;47.454;18.966;2023-03-01T01:39:52;20.68;;;12.05;;
77571;SDS011;67214;47.454;18.966;2023-03-01T01:42:19;22.25;;;12.50;;
77571;SDS011;67214;47.454;18.966;2023-03-01T01:44:47;23.50;;;13.08;;
77571;SDS011;67214;47.454;18.966;2023-03-01T01:47:20;18.30;;;12.18;;
77571;SDS011;67214;47.454;18.966;2023-03-01T01:49:53;20.00;;;13.40;;
77571;SDS011;67214;47.454;18.966;2023-03-01T01:52:25;20.08;;;12.30;;
77571;SDS011;67214;47.454;18.966;2023-03-01T01:55:02;20.90;;;12.73;;
77571;SDS011;67214;47.454;18.966;2023-03-01T01:57:35;18.48;;;11.70;;
77571;SDS011;67214;47.454;18.966;2023-03-01T02:00:05;19.65;;;11.35;;
77571;SDS011;67214;47.454;18.966;2023-03-01T02:02:34;20.05;;;10.45;;
77571;SDS011;67214;47.454;18.966;2023-03-01T02:05:09;17.57;;;11.33;;
77571;SDS011;67214;47.454;18.966;2023-03-01T02:07:39;15.70;;;10.15;;
77571;SDS011;67214;47.454;18.966;2023-03-01T02:10:09;18.00;;;11.33;;
77571;SDS011;67214;47.454;18.966;2023-03-01T02:12:36;21.52;;;11.95;;
77571;SDS011;67214;47.454;18.966;2023-03-01T02:15:07;15.78;;;10.55;;
77571;SDS011;67214;47.454;18.966;2023-03-01T02:17:35;14.13;;;10.75;;
77571;SDS011;67214;47.454;18.966;2023-03-01T02:20:07;15.53;;;10.32;;
77571;SDS011;67214;47.454;18.966;2023-03-01T02:22:43;19.87;;;10.38;;
77571;SDS011;67214;47.454;18.966;2023-03-01T02:30:46;15.20;;;9.55;;
77571;SDS011;67214;47.454;18.966;2023-03-01T02:33:34;16.00;;;10.00;;
77571;SDS011;67214;47.454;18.966;2023-03-01T02:36:04;15.63;;;10.32;;
77571;SDS011;67214;47.454;18.966;2023-03-01T02:38:38;17.87;;;9.48;;
77571;SDS011;67214;47.454;18.966;2023-03-01T02:41:07;14.98;;;9.30;;
77571;SDS011;67214;47.454;18.966;2023-03-01T02:43:37;15.68;;;9.50;;
77571;SDS011;67214;47.454;18.966;2023-03-01T02:46:06;16.27;;;9.93;;
77571;SDS011;67214;47.454;18.966;2023-03-01T02:48:46;18.02;;;10.93;;
77571;SDS011;67214;47.454;18.966;2023-03-01T02:51:31;16.73;;;9.50;;
77571;SDS011;67214;47.454;18.966;2023-03-01T02:54:15;14.13;;;10.08;;
77571;SDS011;67214;47.454;18.966;2023-03-01T02:56:54;14.35;;;9.70;;
77571;SDS011;67214;47.454;18.966;2023-03-01T02:59:24;17.00;;;10.48;;
77571;SDS011;67214;47.454;18.966;2023-03-01T03:01:54;15.58;;;10.00;;
77571;SDS011;67214;47.454;18.966;2023-03-01T03:04:21;15.50;;;10.32;;
77571;SDS011;67214;47.454;18.966;2023-03-01T03:06:49;17.10;;;10.08;;
77571;SDS011;67214;47.454;18.966;2023-03-01T03:09:17;16.82;;;10.68;;
77571;SDS011;67214;47.454;18.966;2023-03-01T03:11:45;16.17;;;9.75;;
77571;SDS011;67214;47.454;18.966;2023-03-01T03:14:14;20.75;;;10.03;;
77571;SDS011;67214;47.454;18.966;2023-03-01T03:16:43;15.08;;;10.00;;
77571;SDS011;67214;47.454;18.966;2023-03-01T03:19:12;14.33;;;9.73;;
77571;SDS011;67214;47.454;18.966;2023-03-01T03:21:42;17.80;;;9.83;;
77571;SDS011;67214;47.454;18.966;2023-03-01T03:24:09;15.08;;;9.18;;
77571;SDS011;67214;47.454;18.966;2023-03-01T03:26:37;17.73;;;10.00;;
77571;SDS011;67214;47.454;18.966;2023-03-01T03:29:05;16.02;;;9.55;;
77571;SDS011;67214;47.454;18.966;2023-03-01T03:31:32;14.63;;;9.93;;
77571;SDS011;67214;47.454;18.966;2023-03-01T03:34:02;17.25;;;10.93;;
77571;SDS011;67214;47.454;18.966;2023-03-01T03:36:30;16.75;;;10.28;;
77571;SDS011;67214;47.454;18.966;2023-03-01T03:38:57;15.00;;;9.95;;
77571;SDS011;67214;47.454;18.966;2023-03-01T03:41:24;18.17;;;10.72;;
77571;SDS011;67214;47.454;18.966;2023-03-01T03:43:52;16.70;;;9.75;;
77571;SDS011;67214;47.454;18.966;2023-03-01T03:46:19;16.75;;;10.43;;
77571;SDS011;67214;47.454;18.966;2023-03-01T03:48:47;18.95;;;10.55;;
77571;SDS011;67214;47.454;18.966;2023-03-01T03:51:17;17.00;;;10.68;;
77571;SDS011;67214;47.454;18.966;2023-03-01T03:53:45;14.07;;;10.38;;
77571;SDS011;67214;47.454;18.966;2023-03-01T03:56:13;16.40;;;11.30;;
77571;SDS011;67214;47.454;18.966;2023-03-01T03:58:40;19.60;;;11.43;;
77571;SDS011;67214;47.454;18.966;2023-03-01T04:01:08;16.93;;;10.72;;
77571;SDS011;67214;47.454;18.966;2023-03-01T04:03:35;14.43;;;9.93;;
77571;SDS011;67214;47.454;18.966;2023-03-01T04:06:03;19.35;;;11.73;;
77571;SDS011;67214;47.454;18.966;2023-03-01T04:08:31;19.50;;;11.33;;
77571;SDS011;67214;47.454;18.966;2023-03-01T04:11:00;16.82;;;11.45;;
77571;SDS011;67214;47.454;18.966;2023-03-01T04:13:47;17.75;;;11.50;;
77571;SDS011;67214;47.454;18.966;2023-03-01T04:16:14;16.85;;;10.43;;
77571;SDS011;67214;47.454;18.966;2023-03-01T04:18:43;15.32;;;10.48;;
77571;SDS011;67214;47.454;18.966;2023-03-01T04:21:11;18.55;;;11.50;;
77571;SDS011;67214;47.454;18.966;2023-03-01T04:23:39;19.15;;;12.23;;
77571;SDS011;67214;47.454;18.966;2023-03-01T04:26:07;17.90;;;11.75;;
77571;SDS011;67214;47.454;18.966;2023-03-01T04:28:36;17.35;;;11.43;;
77571;SDS011;67214;47.454;18.966;2023-03-01T04:31:12;17.87;;;11.18;;
77571;SDS011;67214;47.454;18.966;2023-03-01T04:33:46;18.25;;;11.80;;
77571;SDS011;67214;47.454;18.966;2023-03-01T04:36:12;18.80;;;11.70;;
77571;SDS011;67214;47.454;18.966;2023-03-01T04:38:40;22.42;;;11.55;;
77571;SDS011;67214;47.454;18.966;2023-03-01T04:41:11;16.60;;;10.68;;
77571;SDS011;67214;47.454;18.966;2023-03-01T04:43:39;17.32;;;11.05;;
77571;SDS011;67214;47.454;18.966;2023-03-01T04:46:08;18.12;;;11.60;;
77571;SDS011;67214;47.454;18.966;2023-03-01T04:48:38;16.73;;;11.70;;
77571;SDS011;67214;47.454;18.966;2023-03-01T04:51:07;17.42;;;11.15;;
77571;SDS011;67214;47.454;18.966;2023-03-01T04:53:35;19.73;;;11.97;;
77571;SDS011;67214;47.454;18.966;2023-03-01T04:56:02;18.05;;;11.08;;
77571;SDS011;67214;47.454;18.966;2023-03-01T04:58:30;16.77;;;10.45;;
77571;SDS011;67214;47.454;18.966;2023-03-01T05:00:58;18.60;;;11.53;;
77571;SDS011;67214;47.454;18.966;2023-03-01T05:03:26;15.53;;;10.30;;
77571;SDS011;67214;47.454;18.966;2023-03-01T05:05:54;17.62;;;10.60;;
77571;SDS011;67214;47.454;18.966;2023-03-01T05:08:25;15.50;;;10.70;;
77571;SDS011;67214;47.454;18.966;2023-03-01T05:10:52;18.55;;;11.03;;
77571;SDS011;67214;47.454;18.966;2023-03-01T05:13:20;16.60;;;10.45;;
77571;SDS011;67214;47.454;18.966;2023-03-01T05:15:58;16.57;;;10.72;;
77571;SDS011;67214;47.454;18.966;2023-03-01T05:18:28;22.60;;;11.25;;
77571;SDS011;67214;47.454;18.966;2023-03-01T05:21:02;18.12;;;11.30;;
77571;SDS011;67214;47.454;18.966;2023-03-01T05:23:33;15.13;;;10.27;;
77571;SDS011;67214;47.454;18.966;2023-03-01T05:26:02;20.23;;;10.78;;
77571;SDS011;67214;47.454;18.966;2023-03-01T05:28:31;18.45;;;10.30;;
77571;SDS011;67214;47.454;18.966;2023-03-01T05:31:01;15.90;;;10.55;;
77571;SDS011;67214;47.454;18.966;2023-03-01T05:33:30;16.52;;;10.40;;
77571;SDS011;67214;47.454;18.966;2023-03-01T05:35:59;15.80;;;10.58;;
77571;SDS011;67214;47.454;18.966;2023-03-01T05:38:27;16.23;;;9.85;;
77571;SDS011;67214;47.454;18.966;2023-03-01T05:40:54;18.00;;;10.18;;
77571;SDS011;67214;47.454;18.966;2023-03-01T05:43:21;20.57;;;10.82;;
77571;SDS011;67214;47.454;18.966;2023-03-01T05:45:49;14.90;;;10.50;;
77571;SDS011;67214;47.454;18.966;2023-03-01T05:48:17;13.25;;;9.83;;
77571;SDS011;67214;47.454;18.966;2023-03-01T05:50:45;13.75;;;10.18;;
77571;SDS011;67214;47.454;18.966;2023-03-01T05:53:14;17.15;;;11.22;;
77571;SDS011;67214;47.454;18.966;2023-03-01T05:55:44;18.55;;;10.53;;
77571;SDS011;67214;47.454;18.966;2023-03-01T05:58:15;16.77;;;11.38;;
77571;SDS011;67214;47.454;18.966;2023-03-01T06:00:43;17.12;;;10.88;;
77571;SDS011;67214;47.454;18.966;2023-03-01T06:03:14;17.40;;;10.75;;
77571;SDS011;67214;47.454;18.966;2023-03-01T06:05:43;18.77;;;10.58;;
77571;SDS011;67214;47.454;18.966;2023-03-01T06:08:11;18.55;;;11.95;;
77571;SDS011;67214;47.454;18.966;2023-03-01T06:10:39;19.37;;;12.70;;
77571;SDS011;67214;47.454;18.966;2023-03-01T06:13:07;17.52;;;11.63;;
77571;SDS011;67214;47.454;18.966;2023-03-01T06:15:34;21.52;;;12.00;;
77571;SDS011;67214;47.454;18.966;2023-03-01T06:18:02;22.15;;;13.03;;
77571;SDS011;67214;47.454;18.966;2023-03-01T06:20:29;20.70;;;12.40;;
77571;SDS011;67214;47.454;18.966;2023-03-01T06:22:57;22.55;;;12.93;;
77571;SDS011;67214;47.454;18.966;2023-03-01T06:25:26;20.60;;;12.35;;
77571;SDS011;67214;47.454;18.966;2023-03-01T06:27:54;18.95;;;11.57;;
77571;SDS011;67214;47.454;18.966;2023-03-01T06:30:22;24.45;;;14.38;;
77571;SDS011;67214;47.454;18.966;2023-03-01T06:32:51;22.40;;;14.70;;
77571;SDS011;67214;47.454;18.966;2023-03-01T06:35:21;28.77;;;16.70;;
77571;SDS011;67214;47.454;18.966;2023-03-01T06:37:49;25.57;;;15.13;;
77571;SDS011;67214;47.454;18.966;2023-03-01T06:40:16;22.65;;;13.65;;
77571;SDS011;67214;47.454;18.966;2023-03-01T06:42:48;20.12;;;12.73;;
77571;SDS011;67214;47.454;18.966;2023-03-01T06:45:18;21.90;;;12.95;;
77571;SDS011;67214;47.454;18.966;2023-03-01T06:47:46;18.02;;;12.15;;
77571;SDS011;67214;47.454;18.966;2023-03-01T06:50:14;19.48;;;12.05;;
77571;SDS011;67214;47.454;18.966;2023-03-01T06:52:43;19.57;;;11.93;;
77571;SDS011;67214;47.454;18.966;2023-03-01T06:55:11;22.15;;;13.50;;
77571;SDS011;67214;47.454;18.966;2023-03-01T06:57:40;21.05;;;11.88;;
77571;SDS011;67214;47.454;18.966;2023-03-01T07:00:07;20.15;;;11.93;;
77571;SDS011;67214;47.454;18.966;2023-03-01T07:02:36;15.83;;;10.70;;
77571;SDS011;67214;47.454;18.966;2023-03-01T07:05:03;23.80;;;12.63;;
77571;SDS011;67214;47.454;18.966;2023-03-01T07:07:31;22.27;;;12.07;;
77571;SDS011;67214;47.454;18.966;2023-03-01T07:10:03;19.98;;;11.53;;
77571;SDS011;67214;47.454;18.966;2023-03-01T07:12:27;18.00;;;11.48;;
77571;SDS011;67214;47.454;18.966;2023-03-01T07:14:54;22.55;;;13.80;;
77571;SDS011;67214;47.454;18.966;2023-03-01T07:17:22;18.12;;;12.15;;
77571;SDS011;67214;47.454;18.966;2023-03-01T07:19:49;24.43;;;12.60;;
77571;SDS011;67214;47.454;18.966;2023-03-01T07:22:17;21.15;;;11.12;;
77571;SDS011;67214;47.454;18.966;2023-03-01T07:24:44;18.85;;;11.25;;
77571;SDS011;67214;47.454;18.966;2023-03-01T07:27:12;21.55;;;12.23;;
77571;SDS011;67214;47.454;18.966;2023-03-01T07:29:39;17.02;;;11.18;;
77571;SDS011;67214;47.454;18.966;2023-03-01T07:32:06;19.07;;;10.75;;
77571;SDS011;67214;47.454;18.966;2023-03-01T07:34:34;15.65;;;11.73;;
77571;SDS011;67214;47.454;18.966;2023-03-01T07:37:02;19.15;;;11.38;;
77571;SDS011;67214;47.454;18.966;2023-03-01T07:39:29;20.85;;;11.53;;
77571;SDS011;67214;47.454;18.966;2023-03-01T07:41:57;20.27;;;10.70;;
77571;SDS011;67214;47.454;18.966;2023-03-01T07:44:24;16.80;;;10.88;;
77571;SDS011;67214;47.454;18.966;2023-03-01T07:46:53;14.50;;;10.05;;
77571;SDS011;67214;47.454;18.966;2023-03-01T07:49:22;17.98;;;11.05;;
77571;SDS011;67214;47.454;18.966;2023-03-01T07:51:52;17.07;;;9.93;;
77571;SDS011;67214;47.454;18.966;2023-03-01T07:54:19;17.75;;;11.95;;
77571;SDS011;67214;47.454;18.966;2023-03-01T07:56:47;19.20;;;11.97;;
77571;SDS011;67214;47.454;18.966;2023-03-01T07:59:14;17.15;;;10.40;;
77571;SDS011;67214;47.454;18.966;2023-03-01T08:01:44;17.80;;;10.20;;
77571;SDS011;67214;47.454;18.966;2023-03-01T08:04:11;16.73;;;10.58;;
77571;SDS011;67214;47.454;18.966;2023-03-01T08:06:38;16.05;;;9.93;;
77571;SDS011;67214;47.454;18.966;2023-03-01T08:09:06;24.00;;;11.12;;
77571;SDS011;67214;47.454;18.966;2023-03-01T08:11:34;17.00;;;10.10;;
77571;SDS011;67214;47.454;18.966;2023-03-01T08:14:01;16.77;;;10.30;;
77571;SDS011;67214;47.454;18.966;2023-03-01T08:16:29;14.55;;;10.13;;
77571;SDS011;67214;47.454;18.966;2023-03-01T08:19:02;12.33;;;8.98;;
77571;SDS011;67214;47.454;18.966;2023-03-01T08:21:28;16.95;;;9.90;;
77571;SDS011;67214;47.454;18.966;2023-03-01T08:23:56;17.45;;;10.25;;
77571;SDS011;67214;47.454;18.966;2023-03-01T08:26:23;14.13;;;9.43;;
77571;SDS011;67214;47.454;18.966;2023-03-01T08:28:51;16.05;;;9.80;;
77571;SDS011;67214;47.454;18.966;2023-03-01T08:31:27;16.62;;;10.45;;
77571;SDS011;67214;47.454;18.966;2023-03-01T08:33:59;17.87;;;10.63;;
77571;SDS011;67214;47.454;18.966;2023-03-01T08:36:34;13.95;;;9.75;;
77571;SDS011;67214;47.454;18.966;2023-03-01T08:38:57;18.50;;;10.65;;
77571;SDS011;67214;47.454;18.966;2023-03-01T08:41:25;16.42;;;10.03;;
77571;SDS011;67214;47.454;18.966;2023-03-01T08:43:53;16.45;;;10.93;;
77571;SDS011;67214;47.454;18.966;2023-03-01T08:46:22;16.93;;;10.53;;
77571;SDS011;67214;47.454;18.966;2023-03-01T08:48:50;14.98;;;9.98;;
77571;SDS011;67214;47.454;18.966;2023-03-01T08:51:18;14.93;;;10.55;;
77571;SDS011;67214;47.454;18.966;2023-03-01T08:53:46;19.80;;;10.93;;
77571;SDS011;67214;47.454;18.966;2023-03-01T08:56:14;20.48;;;11.20;;
77571;SDS011;67214;47.454;18.966;2023-03-01T08:58:44;21.33;;;13.95;;
77571;SDS011;67214;47.454;18.966;2023-03-01T09:01:14;20.27;;;12.45;;
77571;SDS011;67214;47.454;18.966;2023-03-01T09:03:43;16.42;;;11.63;;
77571;SDS011;67214;47.454;18.966;2023-03-01T09:06:12;17.07;;;11.68;;
77571;SDS011;67214;47.454;18.966;2023-03-01T09:08:42;22.42;;;12.07;;
77571;SDS011;67214;47.454;18.966;2023-03-01T09:11:12;23.92;;;11.20;;
77571;SDS011;67214;47.454;18.966;2023-03-01T09:13:42;15.72;;;10.98;;
77571;SDS011;67214;47.454;18.966;2023-03-01T09:16:11;14.07;;;10.38;;
77571;SDS011;67214;47.454;18.966;2023-03-01T09:18:40;17.12;;;11.80;;
77571;SDS011;67214;47.454;18.966;2023-03-01T09:21:08;20.60;;;11.75;;
77571;SDS011;67214;47.454;18.966;2023-03-01T09:23:43;15.78;;;10.53;;
77571;SDS011;67214;47.454;18.966;2023-03-01T09:26:10;16.70;;;11.60;;
77571;SDS011;67214;47.454;18.966;2023-03-01T09:28:40;18.07;;;11.18;;
77571;SDS011;67214;47.454;18.966;2023-03-01T09:31:07;17.27;;;11.65;;
77571;SDS011;67214;47.454;18.966;2023-03-01T09:33:36;18.70;;;12.23;;
77571;SDS011;67214;47.454;18.966;2023-03-01T09:36:04;20.08;;;11.55;;
77571;SDS011;67214;47.454;18.966;2023-03-01T09:38:34;19.90;;;10.65;;
77571;SDS011;67214;47.454;18.966;2023-03-01T09:41:01;15.60;;;11.60;;
77571;SDS011;67214;47.454;18.966;2023-03-01T09:46:06;14.80;;;11.57;;
77571;SDS011;67214;47.454;18.966;2023-03-01T09:48:44;17.57;;;11.97;;
77571;SDS011;67214;47.454;18.966;2023-03-01T09:51:30;18.92;;;12.58;;
77571;SDS011;67214;47.454;18.966;2023-03-01T09:54:05;18.77;;;12.15;;
77571;SDS011;67214;47.454;18.966;2023-03-01T09:56:32;23.35;;;13.28;;
77571;SDS011;67214;47.454;18.966;2023-03-01T09:59:19;17.25;;;12.00;;
77571;SDS011;67214;47.454;18.966;2023-03-01T10:02:05;18.48;;;11.68;;
77571;SDS011;67214;47.454;18.966;2023-03-01T10:04:39;18.60;;;12.35;;
77571;SDS011;67214;47.454;18.966;2023-03-01T10:07:27;16.42;;;11.73;;
77571;SDS011;67214;47.454;18.966;2023-03-01T10:10:00;21.40;;;11.33;;
77571;SDS011;67214;47.454;18.966;2023-03-01T10:12:35;18.32;;;11.80;;
77571;SDS011;67214;47.454;18.966;2023-03-01T10:17:42;20.68;;;12.30;;
77571;SDS011;67214;47.454;18.966;2023-03-01T10:20:21;23.25;;;13.20;;
77571;SDS011;67214;47.454;18.966;2023-03-01T10:22:49;14.90;;;11.10;;
77571;SDS011;67214;47.454;18.966;2023-03-01T10:28:26;20.35;;;12.70;;
77571;SDS011;67214;47.454;18.966;2023-03-01T10:31:11;20.08;;;12.28;;
77571;SDS011;67214;47.454;18.966;2023-03-01T10:33:44;16.97;;;11.68;;
77571;SDS011;67214;47.454;18.966;2023-03-01T10:36:13;18.27;;;12.07;;
77571;SDS011;67214;47.454;18.966;2023-03-01T10:38:51;20.70;;;12.75;;
77571;SDS011;67214;47.454;18.966;2023-03-01T10:41:21;16.00;;;12.13;;
77571;SDS011;67214;47.454;18.966;2023-03-01T10:43:59;18.48;;;11.97;;
77571;SDS011;67214;47.454;18.966;2023-03-01T10:46:33;20.25;;;12.78;;
77571;SDS011;67214;47.454;18.966;2023-03-01T10:51:45;18.95;;;12.43;;
77571;SDS011;67214;47.454;18.966;2023-03-01T10:54:20;17.07;;;11.35;;
77571;SDS011;67214;47.454;18.966;2023-03-01T10:56:48;16.23;;;11.20;;
77571;SDS011;67214;47.454;18.966;2023-03-01T10:59:29;18.82;;;11.70;;
77571;SDS011;67214;47.454;18.966;2023-03-01T11:07:48;20.10;;;11.50;;
77571;SDS011;67214;47.454;18.966;2023-03-01T11:10:24;17.07;;;11.38;;
77571;SDS011;67214;47.454;18.966;2023-03-01T11:12:50;15.95;;;11.78;;
77571;SDS011;67214;47.454;18.966;2023-03-01T11:15:26;28.42;;;12.53;;
77571;SDS011;67214;47.454;18.966;2023-03-01T11:17:54;17.87;;;11.28;;
77571;SDS011;67214;47.454;18.966;2023-03-01T11:20:28;16.42;;;10.40;;
77571;SDS011;67214;47.454;18.966;2023-03-01T11:23:01;18.70;;;11.30;;
77571;SDS011;67214;47.454;18.966;2023-03-01T11:25:35;14.85;;;11.57;;
77571;SDS011;67214;47.454;18.966;2023-03-01T11:28:04;14.78;;;10.50;;
77571;SDS011;67214;47.454;18.966;2023-03-01T11:36:05;17.30;;;10.72;;
77571;SDS011;67214;47.454;18.966;2023-03-01T11:38:34;17.30;;;11.75;;
77571;SDS011;67214;47.454;18.966;2023-03-01T11:41:07;14.55;;;10.65;;
77571;SDS011;67214;47.454;18.966;2023-03-01T11:43:41;18.60;;;10.08;;
77571;SDS011;67214;47.454;18.966;2023-03-01T11:46:28;18.55;;;11.60;;
77571;SDS011;67214;47.454;18.966;2023-03-01T11:52:09;18.00;;;10.10;;
77571;SDS011;67214;47.454;18.966;2023-03-01T12:00:21;13.43;;;8.70;;
77571;SDS011;67214;47.454;18.966;2023-03-01T12:19:30;15.15;;;9.03;;
77571;SDS011;67214;47.454;18.966;2023-03-01T12:22:44;13.68;;;9.05;;
77571;SDS011;67214;47.454;18.966;2023-03-01T12:25:16;13.20;;;8.25;;
77571;SDS011;67214;47.454;18.966;2023-03-01T12:38:59;17.27;;;9.05;;
77571;SDS011;67214;47.454;18.966;2023-03-01T12:41:41;12.82;;;9.53;;
77571;SDS011;67214;47.454;18.966;2023-03-01T12:44:35;15.35;;;9.45;;
77571;SDS011;67214;47.454;18.966;2023-03-01T12:47:11;16.42;;;9.23;;
77571;SDS011;67214;47.454;18.966;2023-03-01T12:50:21;14.83;;;9.30;;
77571;SDS011;67214;47.454;18.966;2023-03-01T12:52:15;12.53;;;8.65;;
77571;SDS011;67214;47.454;18.966;2023-03-01T12:54:44;11.03;;;8.33;;
77571;SDS011;67214;47.454;18.966;2023-03-01T12:57:18;13.48;;;8.35;;
77571;SDS011;67214;47.454;18.966;2023-03-01T12:59:51;10.13;;;8.33;;
77571;SDS011;67214;47.454;18.966;2023-03-01T13:05:01;15.32;;;10.13;;
77571;SDS011;67214;47.454;18.966;2023-03-01T13:07:31;14.35;;;9.10;;
77571;SDS011;67214;47.454;18.966;2023-03-01T13:15:32;17.40;;;10.08;;
77571;SDS011;67214;47.454;18.966;2023-03-01T13:18:03;13.48;;;9.20;;
77571;SDS011;67214;47.454;18.966;2023-03-01T13:20:54;11.85;;;9.05;;
77571;SDS011;67214;47.454;18.966;2023-03-01T13:23:26;13.93;;;8.43;;
77571;SDS011;67214;47.454;18.966;2023-03-01T13:34:00;12.90;;;8.85;;
77571;SDS011;67214;47.454;18.966;2023-03-01T13:39:02;15.40;;;8.85;;
77571;SDS011;67214;47.454;18.966;2023-03-01T13:44:12;10.53;;;8.85;;
77571;SDS011;67214;47.454;18.966;2023-03-01T13:46:42;12.18;;;9.48;;
77571;SDS011;67214;47.454;18.966;2023-03-01T13:49:13;10.45;;;8.35;;
77571;SDS011;67214;47.454;18.966;2023-03-01T13:51:42;11.83;;;8.40;;
77571;SDS011;67214;47.454;18.966;2023-03-01T13:54:16;10.35;;;7.78;;
77571;SDS011;67214;47.454;18.966;2023-03-01T13:56:45;12.88;;;8.15;;
77571;SDS011;67214;47.454;18.966;2023-03-01T13:59:15;8.75;;;7.58;;
77571;SDS011;67214;47.454;18.966;2023-03-01T14:01:44;9.90;;;6.95;;
77571;SDS011;67214;47.454;18.966;2023-03-01T14:04:22;10.53;;;7.25;;
77571;SDS011;67214;47.454;18.966;2023-03-01T14:07:08;12.65;;;8.30;;
77571;SDS011;67214;47.454;18.966;2023-03-01T14:09:39;11.65;;;7.62;;
77571;SDS011;67214;47.454;18.966;2023-03-01T14:15:06;13.85;;;7.67;;
77571;SDS011;67214;47.454;18.966;2023-03-01T14:17:40;10.08;;;7.22;;
77571;SDS011;67214;47.454;18.966;2023-03-01T14:20:25;9.90;;;7.58;;
77571;SDS011;67214;47.454;18.966;2023-03-01T14:23:02;11.93;;;7.95;;
77571;SDS011;67214;47.454;18.966;2023-03-01T14:25:29;8.83;;;6.70;;
77571;SDS011;67214;47.454;18.966;2023-03-01T14:28:12;9.53;;;6.35;;
77571;SDS011;67214;47.454;18.966;2023-03-01T14:30:44;12.78;;;7.03;;
77571;SDS011;67214;47.454;18.966;2023-03-01T14:36:07;10.00;;;6.42;;
77571;SDS011;67214;47.454;18.966;2023-03-01T14:38:40;9.38;;;6.35;;
77571;SDS011;67214;47.454;18.966;2023-03-01T14:41:09;7.30;;;5.97;;
77571;SDS011;67214;47.454;18.966;2023-03-01T14:43:55;8.25;;;6.28;;
77571;SDS011;67214;47.454;18.966;2023-03-01T14:46:31;9.55;;;6.55;;
77571;SDS011;67214;47.454;18.966;2023-03-01T14:49:11;9.00;;;5.45;;
77571;SDS011;67214;47.454;18.966;2023-03-01T14:51:51;8.53;;;5.92;;
77571;SDS011;67214;47.454;18.966;2023-03-01T14:54:37;11.33;;;6.65;;
77571;SDS011;67214;47.454;18.966;2023-03-01T14:57:18;9.60;;;6.08;;
77571;SDS011;67214;47.454;18.966;2023-03-01T14:59:55;13.30;;;6.05;;
77571;SDS011;67214;47.454;18.966;2023-03-01T15:02:22;7.37;;;5.25;;
77571;SDS011;67214;47.454;18.966;2023-03-01T15:04:52;8.10;;;5.78;;
77571;SDS011;67214;47.454;18.966;2023-03-01T15:07:29;10.48;;;5.97;;
77571;SDS011;67214;47.454;18.966;2023-03-01T15:09:53;8.68;;;5.62;;
77571;SDS011;67214;47.454;18.966;2023-03-01T15:12:25;10.45;;;6.05;;
77571;SDS011;67214;47.454;18.966;2023-03-01T15:14:57;8.75;;;5.78;;
77571;SDS011;67214;47.454;18.966;2023-03-01T15:17:32;13.65;;;5.92;;
77571;SDS011;67214;47.454;18.966;2023-03-01T15:20:03;14.07;;;8.63;;
77571;SDS011;67214;47.454;18.966;2023-03-01T15:22:32;9.60;;;6.10;;
77571;SDS011;67214;47.454;18.966;2023-03-01T15:25:01;14.98;;;6.25;;
77571;SDS011;67214;47.454;18.966;2023-03-01T15:27:29;9.13;;;5.62;;
77571;SDS011;67214;47.454;18.966;2023-03-01T15:30:00;7.22;;;5.00;;
77571;SDS011;67214;47.454;18.966;2023-03-01T15:32:30;8.40;;;4.60;;
77571;SDS011;67214;47.454;18.966;2023-03-01T15:35:00;11.22;;;5.47;;
77571;SDS011;67214;47.454;18.966;2023-03-01T15:37:38;7.92;;;4.80;;
77571;SDS011;67214;47.454;18.966;2023-03-01T15:40:17;10.98;;;4.70;;
77571;SDS011;67214;47.454;18.966;2023-03-01T15:42:47;7.75;;;5.30;;
77571;SDS011;67214;47.454;18.966;2023-03-01T15:45:22;9.55;;;5.17;;
77571;SDS011;67214;47.454;18.966;2023-03-01T15:47:53;13.25;;;5.30;;
77571;SDS011;67214;47.454;18.966;2023-03-01T15:50:34;18.48;;;5.65;;
77571;SDS011;67214;47.454;18.966;2023-03-01T15:53:12;9.20;;;4.37;;
77571;SDS011;67214;47.454;18.966;2023-03-01T15:55:41;13.15;;;5.08;;
77571;SDS011;67214;47.454;18.966;2023-03-01T15:58:13;13.05;;;5.40;;
77571;SDS011;67214;47.454;18.966;2023-03-01T16:00:51;16.40;;;5.12;;
77571;SDS011;67214;47.454;18.966;2023-03-01T16:03:21;10.35;;;5.08;;
77571;SDS011;67214;47.454;18.966;2023-03-01T16:05:49;10.45;;;4.72;;